»·PEaware :: N256Z KPHX-KPSP

N256Z :: KPHX-KPSP

FLIGHT INFORMATION

Flight Status: Arrived
Operator: Privately registered:
United States
More flights under this callsign
Pilot: Gregory A. (9731)
Aircraft: PIPER PA-46-500TP MALIBU MERIDIAN
(P46T)
More flights by this aircraft type
Origin: KPHX Phoenix Sky Harbor Intl
United States
Destination: KPSP Palm Springs Intl
United States
More flights between these airports :: More routes between these airports
Route: KEENS2 HRRBR J212 DECAS SBONO1
File this flight plan on PilotEdge
Remarks:
Altitude:
(Current/Filed)
260ft
Speed:
(Current/Filed)
260kts
Departed: 18-Jul-18 02:36 PM
Arrived: 18-Jul-18 03:54 PM
Distance/Time
Traveled:
226nm/1:18
Distance/Time
To Go:
Arrived

Flight Plot

Page will automatically refresh every two minutes.

Flight plan parsing failed; only flown route is shown


Map Options




Map Legend


Flown Route
Filed Route
Departure Airport
Arrival Airport
Navaid (VOR, NDB)
Fix

Horizontal Profiles

Position Reports

Time Latitude Longitude Heading Altitude Ground
Speed
18-Jul-18 14:09 33.426328 -112.023481 36 1139ft 0kts
18-Jul-18 14:10 33.426330 -112.023480 36 1139ft 0kts
18-Jul-18 14:11 33.426330 -112.023480 36 1139ft 0kts
18-Jul-18 14:12 33.426330 -112.023480 36 1139ft 0kts
18-Jul-18 14:13 33.426330 -112.023480 36 1139ft 0kts
18-Jul-18 14:14 33.426332 -112.023478 36 1139ft 0kts
18-Jul-18 14:15 33.426334 -112.023476 36 1139ft 0kts
18-Jul-18 14:16 33.426336 -112.023474 36 1139ft 0kts
18-Jul-18 14:17 33.426338 -112.023473 36 1139ft 0kts
18-Jul-18 14:18 33.426340 -112.023471 36 1139ft 0kts
18-Jul-18 14:19 33.426342 -112.023469 36 1139ft 0kts
18-Jul-18 14:20 33.426344 -112.023467 36 1139ft 0kts
18-Jul-18 14:21 33.426346 -112.023466 36 1139ft 0kts
18-Jul-18 14:22 33.426347 -112.023464 36 1139ft 0kts
18-Jul-18 14:23 33.426347 -112.023464 36 1139ft 0kts
18-Jul-18 14:24 33.426347 -112.023464 36 1139ft 0kts
18-Jul-18 14:25 33.426348 -112.023464 36 1139ft 0kts
18-Jul-18 14:26 33.426349 -112.023462 36 1139ft 0kts
18-Jul-18 14:27 33.426351 -112.023461 36 1139ft 0kts
18-Jul-18 14:28 33.426353 -112.023459 36 1139ft 0kts
18-Jul-18 14:29 33.427136 -112.021928 95 1139ft 10kts
18-Jul-18 14:30 33.427106 -112.021526 95 1139ft 0kts
18-Jul-18 14:31 33.427703 -112.018938 91 1139ft 12kts
18-Jul-18 14:32 33.427721 -112.015681 89 1139ft 11kts
18-Jul-18 14:33 33.427729 -112.010343 90 1139ft 14kts
18-Jul-18 14:34 33.427744 -112.006296 89 1139ft 10kts
18-Jul-18 14:35 33.428034 -112.005322 29 1139ft 0kts
18-Jul-18 14:36 33.428738 -112.007073 271 1139ft 34kts
18-Jul-18 14:37 33.428563 -112.043303 265 1704ft 167kts
18-Jul-18 14:38 33.418318 -112.100889 244 2852ft 160kts
18-Jul-18 14:39 33.392761 -112.134993 238 4198ft 160kts
18-Jul-18 14:40 33.400862 -112.184445 257 6479ft 174kts
18-Jul-18 14:41 33.390651 -112.245276 279 7598ft 178kts
18-Jul-18 14:42 33.402435 -112.300988 284 9590ft 169kts
18-Jul-18 14:43 33.413883 -112.358183 278 11616ft 187kts
18-Jul-18 14:44 33.423567 -112.420891 277 13624ft 193kts
18-Jul-18 14:45 33.432911 -112.484041 276 15620ft 194kts
18-Jul-18 14:46 33.442319 -112.547969 276 17617ft 195kts
18-Jul-18 14:47 33.449539 -112.611701 269 19616ft 189kts
18-Jul-18 14:48 33.450935 -112.673392 267 21602ft 181kts
18-Jul-18 14:49 33.451736 -112.731959 267 23588ft 172kts
18-Jul-18 14:50 33.452543 -112.791531 268 25600ft 182kts
18-Jul-18 14:51 33.460179 -112.859147 279 26136ft 233kts
18-Jul-18 14:52 33.474674 -112.935779 279 26123ft 232kts
18-Jul-18 14:53 33.489418 -113.012687 279 26123ft 239kts
18-Jul-18 14:54 33.504326 -113.090705 279 26122ft 242kts
18-Jul-18 14:55 33.519364 -113.169621 279 26120ft 242kts
18-Jul-18 14:56 33.534338 -113.248449 279 26120ft 243kts
18-Jul-18 14:57 33.549343 -113.327535 279 26118ft 242kts
18-Jul-18 14:58 33.564219 -113.406388 279 26116ft 242kts
18-Jul-18 14:59 33.579113 -113.485154 279 26114ft 242kts
18-Jul-18 15:00 33.593801 -113.564364 278 26112ft 242kts
18-Jul-18 15:01 33.608423 -113.643184 278 26109ft 242kts
18-Jul-18 15:02 33.623100 -113.722195 278 26109ft 242kts
18-Jul-18 15:03 33.637731 -113.800838 278 26121ft 241kts
18-Jul-18 15:04 33.652155 -113.879329 278 26119ft 241kts
18-Jul-18 15:05 33.666458 -113.958097 278 26113ft 241kts
18-Jul-18 15:06 33.680777 -114.036461 278 26109ft 240kts
18-Jul-18 15:07 33.695025 -114.114741 278 26107ft 240kts
18-Jul-18 15:08 33.709292 -114.193288 278 26106ft 240kts
18-Jul-18 15:09 33.723476 -114.271621 278 26104ft 240kts
18-Jul-18 15:10 33.737713 -114.350454 278 26102ft 241kts
18-Jul-18 15:11 33.751904 -114.429130 278 26100ft 241kts
18-Jul-18 15:12 33.766154 -114.507821 278 26099ft 241kts
18-Jul-18 15:13 33.774352 -114.587529 271 26099ft 239kts
18-Jul-18 15:14 33.779317 -114.667162 271 25884ft 239kts
18-Jul-18 15:15 33.783987 -114.747092 270 25189ft 239kts
18-Jul-18 15:16 33.788527 -114.826500 270 24490ft 238kts
18-Jul-18 15:17 33.793044 -114.906310 270 23791ft 240kts
18-Jul-18 15:18 33.797536 -114.986982 270 23091ft 240kts
18-Jul-18 15:19 33.801881 -115.065221 270 22388ft 231kts
18-Jul-18 15:20 33.806114 -115.142388 270 21687ft 230kts
18-Jul-18 15:21 33.810288 -115.219503 270 20988ft 231kts
18-Jul-18 15:22 33.814420 -115.295934 270 20288ft 228kts
18-Jul-18 15:23 33.818535 -115.372385 270 19587ft 229kts
18-Jul-18 15:24 33.824170 -115.447449 279 18886ft 222kts
18-Jul-18 15:25 33.842893 -115.517505 286 18184ft 218kts
18-Jul-18 15:26 33.864503 -115.585752 287 17486ft 218kts
18-Jul-18 15:27 33.886525 -115.653891 289 16787ft 219kts
18-Jul-18 15:28 33.906762 -115.723075 285 16088ft 218kts
18-Jul-18 15:29 33.920015 -115.791674 247 15383ft 204kts
18-Jul-18 15:30 33.886337 -115.843115 228 14692ft 192kts
18-Jul-18 15:31 33.864419 -115.888023 220 14124ft 189kts
18-Jul-18 15:32 33.823680 -115.928446 225 13439ft 192kts
18-Jul-18 15:33 33.786360 -115.975117 227 12738ft 193kts
18-Jul-18 15:34 33.743884 -116.030362 228 11867ft 196kts
18-Jul-18 15:35 33.706268 -116.079526 227 10870ft 198kts
18-Jul-18 15:36 33.668131 -116.121837 220 9862ft 180kts
18-Jul-18 15:37 33.635966 -116.153537 229 9027ft 179kts
18-Jul-18 15:38 33.659784 -116.183694 33 8029ft 189kts
18-Jul-18 15:39 33.650552 -116.134296 154 7103ft 181kts
18-Jul-18 15:40 33.622484 -116.090738 101 6625ft 185kts
18-Jul-18 15:41 33.588385 -116.075628 243 5620ft 178kts
18-Jul-18 15:42 33.608378 -116.127504 306 4634ft 182kts
18-Jul-18 15:43 33.638960 -116.176201 304 3636ft 182kts
18-Jul-18 15:44 33.667032 -116.224590 303 3088ft 165kts
18-Jul-18 15:45 33.691140 -116.266191 303 3100ft 144kts
18-Jul-18 15:46 33.712733 -116.303427 304 3100ft 149kts
18-Jul-18 15:47 33.743483 -116.338848 318 2761ft 163kts
18-Jul-18 15:48 33.778039 -116.375674 310 2106ft 164kts
18-Jul-18 15:49 33.805685 -116.418551 306 1635ft 151kts
18-Jul-18 15:50 33.827906 -116.453804 306 1617ft 129kts
18-Jul-18 15:51 33.851065 -116.487063 323 1632ft 126kts
18-Jul-18 15:52 33.879491 -116.510984 324 1619ft 125kts
18-Jul-18 15:53 33.866442 -116.533940 163 1506ft 131kts
18-Jul-18 15:54 33.834481 -116.511834 143 548ft 127kts
18-Jul-18 15:55 33.824604 -116.504294 171 481ft 0kts
18-Jul-18 15:56 33.822775 -116.504701 232 481ft 14kts
18-Jul-18 15:57 33.821060 -116.505767 253 481ft 0kts
18-Jul-18 15:58 33.821060 -116.505767 253 481ft 0kts
18-Jul-18 15:59 33.821060 -116.505767 253 481ft 0kts

Navigation Log

Ident Type
Flight plan parsing failed, navigation log unavailable